Terminal Aerodrome Forecast
Issued by NWS Charleston, WV

Current Version | Previous Version | Graphics & Text | Print | Product List | Glossary On
Versions: 1 2 3 4 5 6 7 8 9 10 11 12 13 14 15 16 17 18 19 20 21
000
FTUS41 KRLX 130200 AAA
TAFCRW
TAF AMD
KCRW 130234Z 1303/1324 VRB03KT P6SM SCT100
     FM130900 21004KT 6SM HZ BR SCT050 BKN100
     FM131500 23010G20KT 6SM HZ BKN040 BKN100
     FM132300 22009KT P6SM VCTS BKN030CB BKN080=

USA.gov is the U.S. government's official web portal to all federal, state and local government web resources and services.